N930DW YPAD-YKSC
Flight info
| Callsign | N930DW |
|---|---|
| Flight time | 0h 22m |
| Altitude | 14000 |
| Route | AD W504 VAVPA |
| Aircraft | TBM9/L-SDFGRWY/S |
Departure
| Time | 2026-05-05 09:09 |
|---|---|
| Airport | Adelaide International Airport (YPAD) |
Arrival
| Time | 2026-05-05 09:31 |
|---|---|
| Airport | Kingscote Airport (YKSC) |
| Time | Latitude | Longitude | Altitude | Speed | Heading |
|---|---|---|---|---|---|
| 2026-05-05 08:56 | -34.93921 | 138.53183 | 19 ft | 0 kts | 51° |
| 2026-05-05 09:02 | -34.93913 | 138.53190 | 19 ft | 8 kts | 18° |
| 2026-05-05 09:02 | -34.93865 | 138.53153 | 16 ft | 10 kts | 318° |
| 2026-05-05 09:03 | -34.93863 | 138.53068 | 14 ft | 13 kts | 225° |
| 2026-05-05 09:03 | -34.93905 | 138.53015 | 14 ft | 13 kts | 235° |
| 2026-05-05 09:03 | -34.93981 | 138.52955 | 15 ft | 13 kts | 190° |
| 2026-05-05 09:03 | -34.94079 | 138.52933 | 15 ft | 15 kts | 191° |
| 2026-05-05 09:04 | -34.94179 | 138.52935 | 18 ft | 13 kts | 179° |
| 2026-05-05 09:04 | -34.94270 | 138.52922 | 20 ft | 13 kts | 186° |
| 2026-05-05 09:04 | -34.94357 | 138.52947 | 21 ft | 14 kts | 139° |
| 2026-05-05 09:04 | -34.94420 | 138.53056 | 20 ft | 17 kts | 121° |
| 2026-05-05 09:05 | -34.94469 | 138.53140 | 20 ft | 1 kts | 130° |
| 2026-05-05 09:05 | -34.94473 | 138.53149 | 20 ft | 10 kts | 116° |
| 2026-05-05 09:05 | -34.94518 | 138.53275 | 17 ft | 13 kts | 89° |
| 2026-05-05 09:05 | -34.94499 | 138.53347 | 15 ft | 6 kts | 52° |
| 2026-05-05 09:06 | -34.94518 | 138.53439 | 14 ft | 13 kts | 130° |
| 2026-05-05 09:06 | -34.94526 | 138.53452 | 14 ft | 0 kts | 127° |
| 2026-05-05 09:08 | -34.94553 | 138.53497 | 15 ft | 13 kts | 128° |
| 2026-05-05 09:08 | -34.94627 | 138.53515 | 16 ft | 13 kts | 226° |
| 2026-05-05 09:08 | -34.94688 | 138.53430 | 18 ft | 14 kts | 230° |
| 2026-05-05 09:08 | -34.94858 | 138.53187 | 21 ft | 65 kts | 230° |
| 2026-05-05 09:09 | -34.95264 | 138.52624 | 162 ft | 102 kts | 229° |
| 2026-05-05 09:09 | -34.95760 | 138.51909 | 524 ft | 117 kts | 231° |
| 2026-05-05 09:09 | -34.96331 | 138.51115 | 932 ft | 131 kts | 228° |
| 2026-05-05 09:09 | -34.96948 | 138.50270 | 1491 ft | 134 kts | 228° |
| 2026-05-05 09:10 | -34.97567 | 138.49398 | 1995 ft | 138 kts | 227° |
| 2026-05-05 09:10 | -34.98222 | 138.48502 | 2502 ft | 140 kts | 224° |
| 2026-05-05 09:10 | -34.98896 | 138.47704 | 3121 ft | 136 kts | 221° |
| 2026-05-05 09:10 | -34.99590 | 138.46938 | 3653 ft | 137 kts | 220° |
| 2026-05-05 09:11 | -35.00299 | 138.46100 | 4101 ft | 144 kts | 222° |
| 2026-05-05 09:11 | -35.00968 | 138.45186 | 4645 ft | 145 kts | 229° |
| 2026-05-05 09:11 | -35.01602 | 138.44215 | 5205 ft | 146 kts | 232° |
| 2026-05-05 09:11 | -35.02255 | 138.43267 | 5761 ft | 146 kts | 226° |
| 2026-05-05 09:12 | -35.02975 | 138.42366 | 6232 ft | 153 kts | 225° |
| 2026-05-05 09:12 | -35.03727 | 138.41422 | 6739 ft | 156 kts | 226° |
| 2026-05-05 09:12 | -35.04484 | 138.40466 | 7237 ft | 157 kts | 226° |
| 2026-05-05 09:12 | -35.05271 | 138.39542 | 7793 ft | 155 kts | 220° |
| 2026-05-05 09:13 | -35.06070 | 138.38659 | 8240 ft | 158 kts | 230° |
| 2026-05-05 09:13 | -35.06657 | 138.37533 | 8768 ft | 157 kts | 232° |
| 2026-05-05 09:13 | -35.07382 | 138.36503 | 9198 ft | 163 kts | 226° |
| 2026-05-05 09:13 | -35.08155 | 138.35473 | 9737 ft | 163 kts | 227° |
| 2026-05-05 09:14 | -35.08925 | 138.34459 | 10248 ft | 165 kts | 226° |
| 2026-05-05 09:14 | -35.09712 | 138.33429 | 10721 ft | 166 kts | 226° |
| 2026-05-05 09:14 | -35.10498 | 138.32398 | 11189 ft | 167 kts | 225° |
| 2026-05-05 09:14 | -35.11294 | 138.31355 | 11652 ft | 169 kts | 226° |
| 2026-05-05 09:15 | -35.12089 | 138.30294 | 12128 ft | 170 kts | 226° |
| 2026-05-05 09:15 | -35.12884 | 138.29230 | 12605 ft | 171 kts | 226° |
| 2026-05-05 09:15 | -35.13700 | 138.28144 | 13093 ft | 172 kts | 226° |
| 2026-05-05 09:15 | -35.14514 | 138.27073 | 13572 ft | 174 kts | 226° |
| 2026-05-05 09:16 | -35.15339 | 138.25979 | 14060 ft | 175 kts | 226° |
| 2026-05-05 09:16 | -35.16189 | 138.24850 | 14272 ft | 191 kts | 227° |
| 2026-05-05 09:16 | -35.17132 | 138.23588 | 14281 ft | 213 kts | 227° |
| 2026-05-05 09:16 | -35.18187 | 138.22196 | 14283 ft | 232 kts | 227° |
| 2026-05-05 09:17 | -35.19312 | 138.20699 | 14280 ft | 245 kts | 227° |
| 2026-05-05 09:17 | -35.20481 | 138.19125 | 14283 ft | 254 kts | 228° |
| 2026-05-05 09:17 | -35.21687 | 138.17505 | 14284 ft | 260 kts | 227° |
| 2026-05-05 09:17 | -35.22907 | 138.15883 | 14284 ft | 264 kts | 227° |
| 2026-05-05 09:18 | -35.24162 | 138.14220 | 14283 ft | 266 kts | 227° |
| 2026-05-05 09:18 | -35.25420 | 138.12546 | 14281 ft | 268 kts | 228° |
| 2026-05-05 09:18 | -35.26686 | 138.10860 | 14285 ft | 269 kts | 228° |
| 2026-05-05 09:18 | -35.27945 | 138.09183 | 14283 ft | 269 kts | 228° |
| 2026-05-05 09:19 | -35.29220 | 138.07482 | 14285 ft | 270 kts | 228° |
| 2026-05-05 09:19 | -35.30477 | 138.05806 | 14281 ft | 270 kts | 228° |
| 2026-05-05 09:19 | -35.31758 | 138.04097 | 14283 ft | 271 kts | 228° |
| 2026-05-05 09:19 | -35.33024 | 138.02406 | 14279 ft | 271 kts | 228° |
| 2026-05-05 09:20 | -35.34297 | 138.00707 | 14280 ft | 271 kts | 228° |
| 2026-05-05 09:20 | -35.35580 | 137.98993 | 14276 ft | 271 kts | 228° |
| 2026-05-05 09:20 | -35.36852 | 137.97290 | 14280 ft | 271 kts | 228° |
| 2026-05-05 09:20 | -35.38120 | 137.95594 | 14280 ft | 271 kts | 228° |
| 2026-05-05 09:21 | -35.39391 | 137.93897 | 14281 ft | 271 kts | 228° |
| 2026-05-05 09:21 | -35.40661 | 137.92194 | 14278 ft | 271 kts | 228° |
| 2026-05-05 09:21 | -35.41944 | 137.90475 | 14275 ft | 271 kts | 228° |
| 2026-05-05 09:21 | -35.43215 | 137.88773 | 14278 ft | 271 kts | 228° |
| 2026-05-05 09:22 | -35.44491 | 137.87064 | 14276 ft | 271 kts | 228° |
| 2026-05-05 09:22 | -35.45753 | 137.85370 | 14279 ft | 271 kts | 228° |
| 2026-05-05 09:22 | -35.47030 | 137.83656 | 14276 ft | 271 kts | 228° |
| 2026-05-05 09:22 | -35.48296 | 137.81950 | 14280 ft | 271 kts | 229° |
| 2026-05-05 09:23 | -35.49554 | 137.80244 | 14276 ft | 271 kts | 229° |
| 2026-05-05 09:23 | -35.50829 | 137.78536 | 14276 ft | 271 kts | 228° |
| 2026-05-05 09:23 | -35.52120 | 137.76822 | 14275 ft | 271 kts | 228° |
| 2026-05-05 09:23 | -35.53358 | 137.75147 | 13858 ft | 260 kts | 229° |
| 2026-05-05 09:24 | -35.54567 | 137.73511 | 13196 ft | 253 kts | 228° |
| 2026-05-05 09:24 | -35.55733 | 137.71949 | 12560 ft | 247 kts | 228° |
| 2026-05-05 09:24 | -35.56880 | 137.70421 | 11927 ft | 234 kts | 228° |
| 2026-05-05 09:24 | -35.57952 | 137.68979 | 11307 ft | 224 kts | 227° |
| 2026-05-05 09:25 | -35.58990 | 137.67582 | 10694 ft | 219 kts | 227° |
| 2026-05-05 09:25 | -35.60005 | 137.66207 | 10093 ft | 216 kts | 227° |
| 2026-05-05 09:25 | -35.61011 | 137.64857 | 9439 ft | 214 kts | 227° |
| 2026-05-05 09:25 | -35.62012 | 137.63505 | 8794 ft | 212 kts | 227° |
| 2026-05-05 09:26 | -35.62986 | 137.62180 | 8166 ft | 204 kts | 227° |
| 2026-05-05 09:26 | -35.63918 | 137.60920 | 7553 ft | 197 kts | 227° |
| 2026-05-05 09:26 | -35.64834 | 137.59688 | 6949 ft | 192 kts | 226° |
| 2026-05-05 09:26 | -35.65727 | 137.58494 | 6318 ft | 188 kts | 226° |
| 2026-05-05 09:27 | -35.66597 | 137.57322 | 5673 ft | 183 kts | 226° |
| 2026-05-05 09:27 | -35.67443 | 137.56175 | 5050 ft | 180 kts | 226° |
| 2026-05-05 09:27 | -35.68278 | 137.55034 | 4403 ft | 177 kts | 226° |
| 2026-05-05 09:27 | -35.69107 | 137.53936 | 3781 ft | 175 kts | 223° |
| 2026-05-05 09:28 | -35.69991 | 137.52922 | 3165 ft | 171 kts | 217° |
| 2026-05-05 09:28 | -35.71006 | 137.52231 | 2576 ft | 164 kts | 194° |
| 2026-05-05 09:28 | -35.72114 | 137.52097 | 2014 ft | 162 kts | 173° |
| 2026-05-05 09:28 | -35.73078 | 137.52709 | 1629 ft | 155 kts | 127° |
| 2026-05-05 09:29 | -35.73278 | 137.53969 | 1509 ft | 155 kts | 72° |
| 2026-05-05 09:29 | -35.72611 | 137.54903 | 1505 ft | 146 kts | 24° |
| 2026-05-05 09:29 | -35.71674 | 137.55357 | 1385 ft | 148 kts | 9° |
| 2026-05-05 09:29 | -35.70671 | 137.55586 | 1219 ft | 146 kts | 1° |
| 2026-05-05 09:30 | -35.69685 | 137.55561 | 1030 ft | 142 kts | 343° |
| 2026-05-05 09:30 | -35.68909 | 137.54864 | 857 ft | 137 kts | 298° |
| 2026-05-05 09:30 | -35.68810 | 137.53793 | 702 ft | 127 kts | 245° |
| 2026-05-05 09:30 | -35.69429 | 137.53117 | 589 ft | 114 kts | 189° |
| 2026-05-05 09:31 | -35.70154 | 137.53094 | 380 ft | 100 kts | 175° |
| 2026-05-05 09:31 | -35.70838 | 137.52879 | 146 ft | 99 kts | 196° |
| 2026-05-05 09:31 | -35.71427 | 137.52607 | 28 ft | 78 kts | 199° |
| 2026-05-05 09:31 | -35.71723 | 137.52466 | 28 ft | 1 kts | 199° |